Miles Johnson

Chefscout - Columbus Crew
11 Mär 2027
Donnerstag
Verarbeitung

Persönlichkeit

Anpassungsfähigkeit (19) Ehrgeiz (15) Kontroverse (15) Loyalität (5) Druck (1) Professionalität (19) Fairness (7) Temperament (13)

Profil

Trainerstil Demokratisch
Lizenz Kontinentale C
Entschlossenheit 5
Menschenführung 6
Motivation 7
Disziplin 4
Arbeitszufriedenheit
81%
Ermüdung
0%
Rolle Chefscout
Gehalt 16.2K p/W
Vertrag 14.03.2029

Leistung

Verhalten Gut
Trainingseffektivität
39%
Spielerentwicklung
55%
Verletzungsprävention
60%
Taktische Umsetzung
55%

Letzte Ereignisse

Nahm an einer Scouting-Besprechung teil jetzt
Empfahl ein Transferziel jetzt
Empfahl ein Transferziel jetzt
Empfahl ein Transferziel jetzt
Empfahl ein Transferziel jetzt
Empfahl ein Transferziel jetzt
Nahm an einer Scouting-Besprechung teil jetzt
Spiel beobachtet 7T her

Aktuell beobachtet

167
Spieler Verein Status Fähigkeit Vertrauen Beobachtet Zuletzt beobachtet Letzte Stimme
Davide Bartesaghi AC Milan Aktiv 129 / 139 40% 1 09.03.2027 -
Joel McGregor Swindon Town Aktiv 99 / 90 40% 1 09.03.2027 -
David Kalokoh Ajax Aktiv 117 / 107 40% 1 15.02.2027 -
Amaury Morales Pumas UNAM Verhandlung 109 / 120 40% 1 15.02.2027 -
Nicolás Fernández Mercau Shakhtar Verhandlung 134 / 134 90% 1 14.02.2027 Befürworten
Facundo Torres LOSC Lille Aktiv 134 / 134 67% 1 14.02.2027 Befürworten
Konstantin Tyukavin Inter Verhandlung 132 / 133 66% 1 14.02.2027 Befürworten
Bitello SC Freiburg Aktiv 135 / 135 68% 1 14.02.2027 Befürworten
Pablo Solari Galatasaray Aktiv 128 / 128 68% 1 14.02.2027 Befürworten
Adam Wharton Crystal Palace Aktiv 157 / 165 40% 1 13.02.2027 -
Ethan Ampadu Leeds United Aktiv 129 / 142 40% 1 13.02.2027 -
Dom Ballard Leyton Orient Aktiv 113 / 139 40% 1 12.02.2027 -
Wilson Isidor Sunderland Aktiv 141 / 139 40% 2 11.02.2027 -
Callum O'Hare Sheffield United Aktiv 145 / 121 40% 1 11.02.2027 -
Thulani Erasmus Platinum Stars Aktiv 108 / 124 40% 1 10.02.2027 -
Joe Gelhardt Hull City Aktiv 142 / 119 40% 1 10.02.2027 -
Elijah Adebayo Luton Town Aktiv 125 / 116 40% 2 09.02.2027 -
Luis Vázquez Birmingham Aktiv 128 / 125 40% 1 08.02.2027 -
Oli McBurnie Hull City Aktiv 131 / 149 40% 1 08.02.2027 -
Dominic Calvert-Lewin Leeds United Aktiv 137 / 146 40% 3 07.02.2027 Beobachten
Yoane Wissa Newcastle United Aktiv 157 / 133 40% 1 07.02.2027 -
Evidence Makgopa Orlando Pirates Aktiv 121 / 106 40% 5 06.02.2027 -
Igor Jesus Nottingham Forest Aktiv 137 / 151 40% 6 06.02.2027 -
Peter Shalulile Mamelodi Sundowns Aktiv 144 / 112 40% 10 05.02.2027 -
Alexandr Degtev Orenburg Aktiv 112 / 98 40% 1 05.02.2027 -
Kayne Rizvanovich Minnesota United FC Aktiv 88 / 106 40% 1 05.02.2027 -
Hany Mukhtar Spezia Aktiv 125 / 131 40% 1 03.02.2027 -
Evanilson Bournemouth Aktiv 136 / 135 40% 2 02.02.2027 -
Tyreece Campbell Charlton Athletic Aktiv 116 / 129 40% 1 02.02.2027 -
Ross Stewart Southampton Aktiv 115 / 112 40% 1 01.02.2027 -
Lewis Morgan SuperSport United Aktiv 136 / 124 40% 8 31.01.2027 -
Bernard Sulemana Hasaacas Aktiv 84 / 102 40% 1 31.01.2027 -
Ilyas Ansah Hull City Aktiv 131 / 132 40% 1 29.01.2027 -
Ali Ahmed Norwich City Aktiv 134 / 126 40% 1 28.01.2027 -
Tom Fellows Southampton Aktiv 133 / 116 40% 1 28.01.2027 -
Kieffer Moore Wrexham Aktiv 128 / 111 40% 1 28.01.2027 -
Cameron Archer Southampton Aktiv 135 / 118 40% 1 28.01.2027 -
Noah Okafor Leeds United Aktiv 154 / 143 40% 1 27.01.2027 -
Aaron Connolly Leyton Orient Aktiv 117 / 112 40% 1 27.01.2027 -
Richard Medvedev Khazar Aktiv 105 / 100 40% 1 26.01.2027 -
Jack Clarke Ipswich Town Aktiv 133 / 137 40% 1 26.01.2027 -
Josh Koroma Leyton Orient Aktiv 112 / 119 40% 1 23.01.2027 -
Williams Mothiba Black Aces Aktiv 81 / 87 40% 2 22.01.2027 -
Michael Smith Mansfield Town Aktiv 118 / 102 40% 1 22.01.2027 -
Lassina Traoré Shakhtar Aktiv 113 / 121 40% 4 20.01.2027 -
Charles De Ketelaere Atalanta Aktiv 170 / 161 40% 1 20.01.2027 -
Robert Murić Floriana Aktiv 101 / 89 40% 4 19.01.2027 -
Stephen Odey Ittihad Aktiv 106 / 113 40% 5 19.01.2027 -
Juan Brunetta Tigres Aktiv 149 / 132 40% 1 18.01.2027 -
Brayan León Mamelodi Sundowns Aktiv 127 / 114 40% 4 17.01.2027 -
Gabriel Bravo Hearts of Oak Aktiv 97 / 99 40% 1 17.01.2027 -
Veljko Birmančević Ferencvaros Aktiv 124 / 126 40% 2 16.01.2027 -
Vyacheslav Grulev Nizhniy Novgorod Aktiv 101 / 126 40% 1 16.01.2027 -
Heung-Min Son Los Angeles Football Club Aktiv 143 / 144 40% 4 15.01.2027 -
Manfred Ugalde Spartak Moscow Aktiv 123 / 126 40% 3 14.01.2027 -
Che Adams Torino Aktiv 143 / 128 40% 2 14.01.2027 -
Wesley Pomba Veres Aktiv 130 / 107 40% 1 13.01.2027 -
Bandar Yaqoob ES Setif Aktiv 127 / 145 40% 1 13.01.2027 -
Hélio Varela Maccabi Tel Aviv Aktiv 135 / 126 40% 1 13.01.2027 -
Haji Wright Coventry City Aktiv 147 / 125 40% 2 11.01.2027 -
Miles Leaburn Charlton Athletic Aktiv 116 / 106 40% 3 10.01.2027 -
Patrick Cutrone Monza Aktiv 143 / 141 40% 1 09.01.2027 -
Alejandro Melo Cibalia Aktiv 124 / 110 40% 1 08.01.2027 -
Themba Ngcobo SuperSport United Aktiv 113 / 110 40% 3 07.01.2027 -
Stav Toriel Hapoel Tel Aviv Aktiv 138 / 122 40% 2 07.01.2027 -
Everton Bala Levski Aktiv 114 / 133 40% 2 06.01.2027 -
Ante Aralica Lokomotiv Sofia Aktiv 102 / 121 40% 2 06.01.2027 -
Khari Ranson Arsenal Aktiv 100 / 110 40% 3 05.01.2027 -
Lazar Marković Apollon Aktiv 129 / 141 40% 1 05.01.2027 -
Santiago Ferez Belgrano Aktiv 96 / 115 40% 1 05.01.2027 -
Marcelo Allende Mamelodi Sundowns Aktiv 135 / 140 40% 1 05.01.2027 -
Lorenz Ferdinand Brighton Aktiv 97 / 92 40% 2 03.01.2027 -
Santino Barbi Talleres Aktiv 116 / 118 40% 1 03.01.2027 -
Tommaso Orsini Sambenedettese Aktiv 107 / 91 40% 1 02.01.2027 -
Juan Manuel Centurión Independiente Aktiv 77 / 105 40% 1 02.01.2027 -
Unai Gómez Udinese Aktiv 137 / 134 40% 1 31.12.2026 -
Kenan Dervišagić Floriana Aktiv 118 / 85 40% 1 31.12.2026 -
Kévin Denkey FC Cincinnati Aktiv 132 / 128 40% 3 30.12.2026 -
Tamerlan Musaev CSKA Moscow Aktiv 115 / 128 40% 1 29.12.2026 -
Giacomo Raspadori Atalanta Aktiv 135 / 130 40% 1 28.12.2026 -
Mandla Mahlangu Ajax Cape Town Aktiv 107 / 115 40% 4 27.12.2026 -
Gift Motupa Free State Stars Aktiv 110 / 101 40% 1 22.12.2026 -
Brayan Gil Baltika Aktiv 131 / 129 40% 2 21.12.2026 -
Uroš Đuranović Sliema Wanderers Aktiv 87 / 117 40% 1 21.12.2026 -
Oto John ES Mostaganem Aktiv 90 / 100 40% 3 19.12.2026 -
Ignacio Roldán Lanús Aktiv 72 / 99 40% 1 18.12.2026 -
Puleng Marema Polokwane City Aktiv 90 / 100 40% 2 17.12.2026 -
Etiosa Ighodaro Kaizer Chiefs Aktiv 116 / 95 40% 4 17.12.2026 -
Breel Embolo Atlanta United FC Aktiv 131 / 135 40% 1 14.12.2026 -
Sidiki Chérif Coventry City Aktiv 123 / 137 40% 1 14.12.2026 -
Nikos Karelis Sliema Wanderers Aktiv 88 / 114 40% 3 13.12.2026 -
Sagir Arce Paralimni Aktiv 115 / 110 40% 2 13.12.2026 -
Aidomo Emakhu Oxford United Aktiv 107 / 106 40% 1 09.12.2026 -
Christian Krasnodar Aktiv 148 / 142 40% 1 09.12.2026 -
Tobias Gulliksen Rapid Wien Aktiv 140 / 124 40% 1 09.12.2026 -
Jacques Siwe Rubin Aktiv 110 / 118 40% 1 07.12.2026 -
Moussa Dembélé CR Belouizdad Aktiv 138 / 124 40% 1 06.12.2026 -
Ammar Ramadan DAC Dunajska Streda Aktiv 134 / 117 40% 1 06.12.2026 -
João Gomes Aston Villa Aktiv 143 / 127 40% 1 06.12.2026 -
Kornel Miściur Liverpool Aktiv 100 / 91 40% 1 04.12.2026 -
Patrick Schmidt Tarxien Rainbows Aktiv 92 / 113 40% 1 04.12.2026 -
Jerome Karelse Golden Arrows Aktiv 111 / 107 40% 1 03.12.2026 -
Antoine Griezmann Orlando City Aktiv 148 / 155 40% 4 01.12.2026 -
Lautaro Herrera Estudiantes Aktiv 83 / 115 40% 1 30.11.2026 -
Diego Valdés Vélez Aktiv 123 / 141 40% 1 29.11.2026 -
Gabriel Jesus Barcelona Aktiv 157 / 168 40% 2 26.11.2026 -
Caio Vidal Ludogorets Aktiv 143 / 122 40% 3 25.11.2026 -
José Paradela Cruz Azul Aktiv 137 / 131 40% 1 24.11.2026 -
True Grant Stoke City Aktiv 82 / 104 40% 1 24.11.2026 -
Ruben van Bommel Ferencvaros Aktiv 127 / 142 40% 2 22.11.2026 -
Bruno Gomes Valletta Aktiv 92 / 92 40% 1 22.11.2026 -
Itumeleng Mothiba Black Aces Aktiv 91 / 91 40% 1 20.11.2026 -
Oleksandr Nazarenko Polissia Aktiv 125 / 128 40% 1 19.11.2026 -
David Cordova Atletico Venezuela Aktiv 104 / 101 40% 1 18.11.2026 -
Lebo Mothiba Mamelodi Sundowns Aktiv 113 / 109 40% 1 14.11.2026 -
Matej Poplatnik NK Celje Aktiv 112 / 120 40% 1 13.11.2026 -
Rubens Dinamo Moscow Aktiv 141 / 133 40% 1 11.11.2026 -
Reda Khadra Qarabag Aktiv 131 / 124 40% 1 09.11.2026 -
Griffin Yow New England Revolution Aktiv 125 / 137 40% 1 07.11.2026 -
Michael Cheek Bromley Aktiv 90 / 111 40% 1 07.11.2026 -
David Da Costa Portland Timbers Aktiv 125 / 129 40% 1 05.11.2026 -
Denis Bouanga Los Angeles Football Club Aktiv 131 / 141 40% 3 03.11.2026 -
Tadeo Allende Inter Miami CF Aktiv 126 / 111 40% 2 02.11.2026 -
Ola Brynhildsen Bodo/Glimt Aktiv 118 / 141 40% 1 02.11.2026 -
Damir Céter Hamrun Spartans Aktiv 86 / 91 40% 1 01.11.2026 -
Samuel Julies University of Pretoria Aktiv 85 / 117 40% 3 31.10.2026 -
Paxten Aaronson Colorado Rapids Aktiv 135 / 125 40% 1 31.10.2026 -
Fabricio Díaz San Lorenzo Aktiv 81 / 86 40% 1 31.10.2026 -
Nathan Ordaz Metalist Aktiv 113 / 116 40% 1 29.10.2026 -
Germán Berterame Inter Miami CF Aktiv 124 / 131 40% 2 27.10.2026 -
Victor Adeboyejo Ismaily Aktiv 91 / 88 40% 1 27.10.2026 -
Matty Stevens AFC Wimbledon Aktiv 108 / 118 40% 1 25.10.2026 -
Bénie Traoré New York City Aktiv 127 / 132 40% 1 22.10.2026 Mehr Infos nötig
Antonio Galeano Remo Stars Aktiv 119 / 132 40% 2 19.10.2026 -
Adam Taggart Rapid Wien Aktiv 131 / 130 40% 1 18.10.2026 -
Robert Mizo Ashanti Gold Aktiv 92 / 94 40% 1 18.10.2026 -
Bojan Radulović Huddersfield Town Aktiv 99 / 118 40% 2 16.10.2026 -
Rafael Navarro St. Louis CITY SC Aktiv 129 / 127 40% 2 15.10.2026 -
Ramiro Buratti River Plate Aktiv 77 / 103 40% 1 14.10.2026 -
Diego Luna Real Salt Lake Aktiv 117 / 123 40% 1 14.10.2026 -
Jordan Roberts Stevenage Aktiv 117 / 95 40% 3 12.10.2026 -
Sam Smith Wrexham Aktiv 127 / 113 40% 1 12.10.2026 -
Marlon Gomes Shakhtar Aktiv 139 / 141 40% 1 08.10.2026 -
Frans Krätzig Red Bull Salzburg Aktiv 121 / 114 40% 1 08.10.2026 -
Carles Gil New England Revolution Aktiv 133 / 142 40% 1 04.10.2026 -
Riqui Puig LA Galaxy Aktiv 122 / 126 40% 1 03.10.2026 -
Tashreeq Matthews Mamelodi Sundowns Aktiv 131 / 102 40% 2 02.10.2026 -
Robin Lod Chicago Fire Aktiv 136 / 118 40% 1 28.09.2026 -
Owen Foster Hull City Aktiv 96 / 85 40% 1 28.09.2026 -
Morgan Guilavogui Real Salt Lake Aktiv 124 / 121 40% 1 25.09.2026 -
Jeremy Ebobisse Los Angeles Football Club Aktiv 118 / 117 40% 1 23.09.2026 -
Bryan Ramírez FC Cincinnati Aktiv 141 / 139 40% 1 23.09.2026 -
Stephen Humphrys Bradford City Aktiv 95 / 114 40% 1 21.09.2026 -
Yeangel Montero Naxxar Lions Aktiv 96 / 111 40% 1 19.09.2026 -
Myrto Uzuni Austin FC Aktiv 137 / 130 40% 1 19.09.2026 -
Sam Surridge Nashville SC Aktiv 133 / 125 40% 1 18.09.2026 -
Andre Asamoah WAFA Aktiv 111 / 111 40% 1 17.09.2026 -
João Klauss LA Galaxy Aktiv 133 / 127 40% 1 15.09.2026 -
Ahmet Arslan Slavia Sofia Aktiv 87 / 101 40% 1 14.09.2026 -
Wandile Duba Maritzburg United Aktiv 90 / 87 40% 1 11.09.2026 -
Gabriel Pirani San Diego Football Club Aktiv 132 / 143 40% 1 11.09.2026 -
Bongokuhle Hlongwane Minnesota United FC Aktiv 123 / 135 40% 1 11.09.2026 -
Vinicius Tobias Shakhtar Aktiv 124 / 123 40% 1 10.09.2026 -
Thato Sibiya Mamelodi Sundowns Aktiv 95 / 96 40% 1 10.09.2026 -
Caleb Kporha Crystal Palace Aktiv 101 / 106 40% 1 09.09.2026 -
Philippe Ndinga Philadelphia Union Aktiv 109 / 113 40% 1 09.09.2026 -
Mandla Erasmus SuperSport United Aktiv 108 / 127 40% 1 01.08.2026 -